Ana Sayfa
METAR-TAF:

METAR-TAF

Havaalanları :

Lazkiye Havaalanı

Lazkiye, Suriye

Enlem: 35-32N, Boylam: 035-46E, yükseklik: 7 m

Güncel hava durumu gözlemi

Rapor saat 18:00 UTC de 36 dakika önce yapıldı.
Rüzgar doğudan 6 kt
Sıcaklık 24°C
Nem 83%
Basınç 1011 hPa
Görüş mesafesi 10 km veya daha fazla
3000 ft yükseklikte parçalı bulutlu

METAR: OSLK 201800Z 10006KT 9999 SCT030 24/21 Q1011

Saat: 21:36 (18:36 UTC)

Tahmin

Ayın 20'si saat 18 UTC'den ayın 21'si saat 18 UTC'ye kadar geçerli Tahmin
Rüzgar batıdan 10 kt
Görüş mesafesi 10 km veya daha fazla
3000 ft yükseklikte az bulutlu
Geçici
ayın 20'si saat 20 UTC'den ayın 21'si saat 06 UTC'ye kadar
Rüzgar değişken yönden 3 kt
Görüş mesafesi 10 km veya daha fazla
1500 m altında bulut yok ve kümülonimbus yok

TAF: OSLK 2018/2118 26010KT 9999 FEW030 TEMPO 2020/2106 VRB03KT CAVOK

4.000'den fazla havaalanı için hava durumu gözlemleri ve tahminleri (METAR ve TAF raporları).

Kullanılabilir istasyonlar harita üzerinde sarı ve kırmızı noktalarla gösterilir.

İstasyonun adını görmek için fareyi noktanın üzerinde gezdirin.

Sonrasında hava gözlem ve tahminlerini görmek için tıklayın.

Haritayı değiştirmek için: yaklaştırmak için siyah artı işaretli yeşil düğmeye ve uzaklaştırmak için de eksi işaretli düğmeye hızla tıklayın; bitişik haritalar için yeşil okları kullanın.


METAR-TAF: